AIQ728 VYMD-VTBD
Flight info
| Callsign | AIQ728 |
|---|---|
| Flight time | 1h 24m |
| Altitude | 37000 |
| Route | DOGIP1S DOGIP DCT MOXIS B463 BGO L507 IGONI DCT WEHHA WEHHA3A |
| Aircraft | A320/M-SDE3FGHIRWY/LB1 |
Departure
| Time | 2026-04-25 17:26 |
|---|---|
| Airport | Mandalay International Airport (VYMD) |
Arrival
| Time | 2026-04-25 18:51 |
|---|---|
| Airport | Don Mueang International Airport (VTBD) |
| Time | Latitude | Longitude | Altitude | Speed | Heading |
|---|---|---|---|---|---|
| 2026-04-25 17:00 | 21.70441 | 95.97152 | 287 ft | 0 kts | 262° |
| 2026-04-25 17:16 | 21.70441 | 95.97158 | 290 ft | 2 kts | 260° |
| 2026-04-25 17:17 | 21.70444 | 95.97175 | 296 ft | 2 kts | 262° |
| 2026-04-25 17:17 | 21.70445 | 95.97187 | 293 ft | 2 kts | 262° |
| 2026-04-25 17:17 | 21.70448 | 95.97210 | 293 ft | 2 kts | 262° |
| 2026-04-25 17:17 | 21.70450 | 95.97222 | 293 ft | 2 kts | 266° |
| 2026-04-25 17:18 | 21.70448 | 95.97239 | 293 ft | 2 kts | 327° |
| 2026-04-25 17:18 | 21.70432 | 95.97245 | 295 ft | 2 kts | 353° |
| 2026-04-25 17:18 | 21.70417 | 95.97247 | 292 ft | 1 kts | 352° |
| 2026-04-25 17:18 | 21.70414 | 95.97248 | 292 ft | 0 kts | 352° |
| 2026-04-25 17:20 | 21.70415 | 95.97247 | 292 ft | 1 kts | 352° |
| 2026-04-25 17:20 | 21.70453 | 95.97242 | 292 ft | 9 kts | 352° |
| 2026-04-25 17:20 | 21.70541 | 95.97227 | 291 ft | 15 kts | 349° |
| 2026-04-25 17:21 | 21.70652 | 95.97204 | 292 ft | 16 kts | 348° |
| 2026-04-25 17:21 | 21.70766 | 95.97180 | 291 ft | 15 kts | 349° |
| 2026-04-25 17:21 | 21.70847 | 95.97230 | 289 ft | 16 kts | 75° |
| 2026-04-25 17:21 | 21.70869 | 95.97352 | 288 ft | 17 kts | 73° |
| 2026-04-25 17:22 | 21.70976 | 95.97378 | 288 ft | 18 kts | 350° |
| 2026-04-25 17:22 | 21.71062 | 95.97363 | 287 ft | 20 kts | 351° |
| 2026-04-25 17:22 | 21.71251 | 95.97330 | 287 ft | 22 kts | 351° |
| 2026-04-25 17:22 | 21.71406 | 95.97303 | 286 ft | 23 kts | 351° |
| 2026-04-25 17:23 | 21.71570 | 95.97274 | 287 ft | 24 kts | 351° |
| 2026-04-25 17:23 | 21.71737 | 95.97245 | 286 ft | 25 kts | 351° |
| 2026-04-25 17:23 | 21.71887 | 95.97219 | 285 ft | 19 kts | 351° |
| 2026-04-25 17:23 | 21.71973 | 95.97274 | 286 ft | 10 kts | 79° |
| 2026-04-25 17:24 | 21.71982 | 95.97331 | 287 ft | 7 kts | 82° |
| 2026-04-25 17:24 | 21.71988 | 95.97393 | 286 ft | 9 kts | 88° |
| 2026-04-25 17:24 | 21.71953 | 95.97420 | 287 ft | 0 kts | 172° |
| 2026-04-25 17:25 | 21.71852 | 95.97437 | 288 ft | 46 kts | 171° |
| 2026-04-25 17:25 | 21.71294 | 95.97536 | 286 ft | 113 kts | 171° |
| 2026-04-25 17:25 | 21.70335 | 95.97704 | 295 ft | 163 kts | 171° |
| 2026-04-25 17:26 | 21.69139 | 95.97915 | 735 ft | 174 kts | 171° |
| 2026-04-25 17:26 | 21.67951 | 95.98138 | 1476 ft | 172 kts | 171° |
| 2026-04-25 17:26 | 21.66748 | 95.98366 | 1972 ft | 184 kts | 171° |
| 2026-04-25 17:26 | 21.65426 | 95.98616 | 2254 ft | 207 kts | 171° |
| 2026-04-25 17:27 | 21.63920 | 95.98898 | 2620 ft | 231 kts | 171° |
| 2026-04-25 17:27 | 21.62262 | 95.99208 | 3087 ft | 249 kts | 171° |
| 2026-04-25 17:27 | 21.60534 | 95.99532 | 3852 ft | 254 kts | 171° |
| 2026-04-25 17:27 | 21.59372 | 95.99750 | 4376 ft | 258 kts | 171° |
| 2026-04-25 17:28 | 21.56965 | 96.00201 | 5385 ft | 266 kts | 171° |
| 2026-04-25 17:28 | 21.55125 | 96.00544 | 6166 ft | 270 kts | 171° |
| 2026-04-25 17:28 | 21.53258 | 96.00893 | 6904 ft | 275 kts | 171° |
| 2026-04-25 17:28 | 21.51382 | 96.01241 | 7652 ft | 279 kts | 171° |
| 2026-04-25 17:29 | 21.49458 | 96.01599 | 8417 ft | 282 kts | 171° |
| 2026-04-25 17:29 | 21.47508 | 96.01963 | 9183 ft | 286 kts | 171° |
| 2026-04-25 17:29 | 21.45529 | 96.02332 | 9925 ft | 291 kts | 171° |
| 2026-04-25 17:29 | 21.43453 | 96.02718 | 10205 ft | 313 kts | 171° |
| 2026-04-25 17:30 | 21.41236 | 96.03111 | 10535 ft | 330 kts | 172° |
| 2026-04-25 17:30 | 21.38965 | 96.03478 | 11131 ft | 336 kts | 173° |
| 2026-04-25 17:30 | 21.36636 | 96.03838 | 11799 ft | 340 kts | 173° |
| 2026-04-25 17:30 | 21.34275 | 96.04195 | 12436 ft | 345 kts | 173° |
| 2026-04-25 17:31 | 21.31879 | 96.04556 | 13081 ft | 349 kts | 173° |
| 2026-04-25 17:31 | 21.29456 | 96.04925 | 13727 ft | 353 kts | 173° |
| 2026-04-25 17:31 | 21.27007 | 96.05305 | 14303 ft | 357 kts | 173° |
| 2026-04-25 17:31 | 21.24536 | 96.05692 | 14867 ft | 360 kts | 173° |
| 2026-04-25 17:32 | 21.22040 | 96.06084 | 15432 ft | 364 kts | 173° |
| 2026-04-25 17:32 | 21.19554 | 96.06474 | 15994 ft | 367 kts | 174° |
| 2026-04-25 17:32 | 21.17011 | 96.06871 | 16549 ft | 371 kts | 174° |
| 2026-04-25 17:32 | 21.14458 | 96.07370 | 17100 ft | 377 kts | 165° |
| 2026-04-25 17:33 | 21.12019 | 96.08449 | 17634 ft | 382 kts | 158° |
| 2026-04-25 17:33 | 21.09588 | 96.09646 | 18190 ft | 386 kts | 158° |
| 2026-04-25 17:33 | 21.07141 | 96.10864 | 18643 ft | 390 kts | 158° |
| 2026-04-25 17:33 | 21.04670 | 96.12097 | 19092 ft | 393 kts | 158° |
| 2026-04-25 17:34 | 21.02178 | 96.13345 | 19530 ft | 397 kts | 158° |
| 2026-04-25 17:34 | 20.99662 | 96.14600 | 19963 ft | 401 kts | 158° |
| 2026-04-25 17:34 | 20.97120 | 96.15861 | 20408 ft | 405 kts | 159° |
| 2026-04-25 17:34 | 20.94550 | 96.17133 | 20818 ft | 408 kts | 159° |
| 2026-04-25 17:35 | 20.91957 | 96.18414 | 21233 ft | 412 kts | 159° |
| 2026-04-25 17:35 | 20.89344 | 96.19707 | 21646 ft | 416 kts | 159° |
| 2026-04-25 17:35 | 20.86709 | 96.21016 | 22051 ft | 419 kts | 159° |
| 2026-04-25 17:35 | 20.84050 | 96.22336 | 22460 ft | 423 kts | 159° |
| 2026-04-25 17:36 | 20.81367 | 96.23662 | 22861 ft | 426 kts | 160° |
| 2026-04-25 17:36 | 20.78700 | 96.24979 | 23292 ft | 429 kts | 160° |
| 2026-04-25 17:36 | 20.75967 | 96.26282 | 23636 ft | 430 kts | 164° |
| 2026-04-25 17:36 | 20.73108 | 96.27192 | 23962 ft | 428 kts | 171° |
| 2026-04-25 17:37 | 20.70226 | 96.28126 | 24286 ft | 435 kts | 165° |
| 2026-04-25 17:37 | 20.67391 | 96.29316 | 24594 ft | 440 kts | 161° |
| 2026-04-25 17:37 | 20.64576 | 96.30669 | 24914 ft | 445 kts | 159° |
| 2026-04-25 17:37 | 20.61759 | 96.32091 | 25242 ft | 448 kts | 159° |
| 2026-04-25 17:38 | 20.58966 | 96.33497 | 25564 ft | 450 kts | 160° |
| 2026-04-25 17:38 | 20.57039 | 96.34443 | 25774 ft | 452 kts | 160° |
| 2026-04-25 17:38 | 20.53216 | 96.36248 | 26188 ft | 455 kts | 161° |
| 2026-04-25 17:38 | 20.50292 | 96.37578 | 26510 ft | 457 kts | 162° |
| 2026-04-25 17:39 | 20.47350 | 96.38897 | 26814 ft | 459 kts | 162° |
| 2026-04-25 17:39 | 20.44397 | 96.40218 | 27132 ft | 462 kts | 162° |
| 2026-04-25 17:39 | 20.41419 | 96.41556 | 27428 ft | 465 kts | 161° |
| 2026-04-25 17:39 | 20.38430 | 96.42907 | 27699 ft | 467 kts | 161° |
| 2026-04-25 17:40 | 20.35428 | 96.44273 | 27995 ft | 470 kts | 161° |
| 2026-04-25 17:40 | 20.32409 | 96.45648 | 28277 ft | 472 kts | 161° |
| 2026-04-25 17:40 | 20.29373 | 96.47030 | 28570 ft | 475 kts | 161° |
| 2026-04-25 17:40 | 20.26369 | 96.48396 | 28854 ft | 477 kts | 161° |
| 2026-04-25 17:41 | 20.23302 | 96.49789 | 29139 ft | 480 kts | 161° |
| 2026-04-25 17:41 | 20.20222 | 96.51186 | 29415 ft | 482 kts | 161° |
| 2026-04-25 17:41 | 20.17120 | 96.52595 | 29700 ft | 485 kts | 161° |
| 2026-04-25 17:41 | 20.13998 | 96.54012 | 29986 ft | 487 kts | 161° |
| 2026-04-25 17:42 | 20.10905 | 96.55416 | 30243 ft | 490 kts | 161° |
| 2026-04-25 17:42 | 20.07755 | 96.56843 | 30469 ft | 492 kts | 161° |
| 2026-04-25 17:42 | 20.04595 | 96.58275 | 30696 ft | 494 kts | 161° |
| 2026-04-25 17:42 | 20.01421 | 96.59713 | 30926 ft | 496 kts | 162° |
| 2026-04-25 17:43 | 19.98237 | 96.61155 | 31146 ft | 498 kts | 161° |
| 2026-04-25 17:43 | 19.95043 | 96.62599 | 31374 ft | 500 kts | 161° |
| 2026-04-25 17:43 | 19.91844 | 96.64045 | 31717 ft | 499 kts | 162° |
| 2026-04-25 17:43 | 19.88648 | 96.65489 | 32082 ft | 498 kts | 162° |
| 2026-04-25 17:44 | 19.85464 | 96.66930 | 32436 ft | 497 kts | 162° |
| 2026-04-25 17:44 | 19.82278 | 96.68373 | 32773 ft | 497 kts | 162° |
| 2026-04-25 17:44 | 19.79100 | 96.69810 | 33113 ft | 496 kts | 162° |
| 2026-04-25 17:44 | 19.75920 | 96.71243 | 33417 ft | 495 kts | 162° |
| 2026-04-25 17:45 | 19.72746 | 96.72674 | 33742 ft | 495 kts | 162° |
| 2026-04-25 17:45 | 19.71714 | 96.73140 | 33856 ft | 495 kts | 162° |
| 2026-04-25 17:45 | 19.66434 | 96.75520 | 34379 ft | 494 kts | 162° |
| 2026-04-25 17:45 | 19.63279 | 96.76939 | 34740 ft | 492 kts | 162° |
| 2026-04-25 17:46 | 19.60137 | 96.78353 | 35078 ft | 489 kts | 162° |
| 2026-04-25 17:46 | 19.57012 | 96.79761 | 35404 ft | 487 kts | 163° |
| 2026-04-25 17:46 | 19.53891 | 96.81164 | 35712 ft | 486 kts | 163° |
| 2026-04-25 17:46 | 19.50782 | 96.82563 | 36011 ft | 484 kts | 163° |
| 2026-04-25 17:47 | 19.47724 | 96.83936 | 36289 ft | 482 kts | 163° |
| 2026-04-25 17:47 | 19.44636 | 96.85321 | 36556 ft | 481 kts | 163° |
| 2026-04-25 17:47 | 19.41547 | 96.86707 | 36790 ft | 481 kts | 163° |
| 2026-04-25 17:47 | 19.38465 | 96.88088 | 36943 ft | 480 kts | 163° |
| 2026-04-25 17:48 | 19.29302 | 96.92209 | 36979 ft | 475 kts | 162° |
| 2026-04-25 17:49 | 19.23217 | 96.94940 | 36966 ft | 474 kts | 163° |
| 2026-04-25 17:49 | 19.17163 | 96.97645 | 36969 ft | 475 kts | 163° |
| 2026-04-25 17:50 | 19.11076 | 97.00361 | 36966 ft | 475 kts | 163° |
| 2026-04-25 17:50 | 19.04979 | 97.03091 | 36972 ft | 475 kts | 162° |
| 2026-04-25 17:51 | 18.98882 | 97.05823 | 36971 ft | 475 kts | 163° |
| 2026-04-25 17:51 | 18.92776 | 97.08542 | 36971 ft | 475 kts | 162° |
| 2026-04-25 17:52 | 18.86722 | 97.11238 | 36971 ft | 475 kts | 162° |
| 2026-04-25 17:52 | 18.80626 | 97.13952 | 36977 ft | 475 kts | 162° |
| 2026-04-25 17:53 | 18.74529 | 97.16673 | 36974 ft | 476 kts | 162° |
| 2026-04-25 17:53 | 18.68424 | 97.19393 | 36971 ft | 475 kts | 162° |
| 2026-04-25 17:54 | 18.62365 | 97.22077 | 36973 ft | 475 kts | 162° |
| 2026-04-25 17:54 | 18.56278 | 97.24783 | 36972 ft | 474 kts | 162° |
| 2026-04-25 17:55 | 18.50191 | 97.27491 | 36971 ft | 474 kts | 162° |
| 2026-04-25 17:55 | 18.44103 | 97.30184 | 36959 ft | 474 kts | 162° |
| 2026-04-25 17:56 | 18.38016 | 97.32879 | 36967 ft | 475 kts | 162° |
| 2026-04-25 17:56 | 18.31956 | 97.35569 | 36959 ft | 475 kts | 162° |
| 2026-04-25 17:57 | 18.25855 | 97.38267 | 36952 ft | 475 kts | 162° |
| 2026-04-25 17:57 | 18.19754 | 97.40967 | 36957 ft | 475 kts | 162° |
| 2026-04-25 17:58 | 18.13647 | 97.43662 | 36950 ft | 475 kts | 161° |
| 2026-04-25 17:58 | 18.07582 | 97.46342 | 36953 ft | 475 kts | 162° |
| 2026-04-25 17:59 | 18.01475 | 97.49035 | 36953 ft | 475 kts | 162° |
| 2026-04-25 17:59 | 17.95375 | 97.51726 | 36949 ft | 475 kts | 162° |
| 2026-04-25 18:00 | 17.90309 | 97.53960 | 36937 ft | 475 kts | 162° |
| 2026-04-25 18:00 | 17.83211 | 97.57085 | 36935 ft | 475 kts | 162° |
| 2026-04-25 18:01 | 17.77113 | 97.59761 | 36942 ft | 475 kts | 162° |
| 2026-04-25 18:01 | 17.71017 | 97.62445 | 36933 ft | 475 kts | 162° |
| 2026-04-25 18:02 | 17.64909 | 97.65130 | 36936 ft | 475 kts | 162° |
| 2026-04-25 18:02 | 17.58841 | 97.67790 | 36918 ft | 475 kts | 161° |
| 2026-04-25 18:03 | 17.52733 | 97.70469 | 36922 ft | 475 kts | 161° |
| 2026-04-25 18:03 | 17.46633 | 97.73150 | 36925 ft | 475 kts | 161° |
| 2026-04-25 18:04 | 17.40536 | 97.75815 | 36930 ft | 474 kts | 161° |
| 2026-04-25 18:04 | 17.34437 | 97.78480 | 36932 ft | 475 kts | 161° |
| 2026-04-25 18:05 | 17.28374 | 97.81136 | 36924 ft | 475 kts | 161° |
| 2026-04-25 18:05 | 17.22261 | 97.83803 | 36924 ft | 475 kts | 161° |
| 2026-04-25 18:06 | 17.16191 | 97.86444 | 36921 ft | 475 kts | 161° |
| 2026-04-25 18:06 | 17.10081 | 97.89114 | 36926 ft | 475 kts | 161° |
| 2026-04-25 18:07 | 17.03967 | 97.91792 | 36940 ft | 475 kts | 161° |
| 2026-04-25 18:07 | 16.97861 | 97.94453 | 36929 ft | 475 kts | 161° |
| 2026-04-25 18:08 | 16.91795 | 97.97090 | 36932 ft | 475 kts | 161° |
| 2026-04-25 18:08 | 16.85686 | 97.99748 | 36915 ft | 475 kts | 161° |
| 2026-04-25 18:09 | 16.79587 | 98.02408 | 36914 ft | 475 kts | 161° |
| 2026-04-25 18:09 | 16.74513 | 98.04613 | 36920 ft | 475 kts | 161° |
| 2026-04-25 18:10 | 16.68397 | 98.07259 | 36920 ft | 475 kts | 161° |
| 2026-04-25 18:10 | 16.62324 | 98.09887 | 36919 ft | 475 kts | 161° |
| 2026-04-25 18:11 | 16.56217 | 98.12540 | 36912 ft | 475 kts | 161° |
| 2026-04-25 18:11 | 16.50108 | 98.15194 | 36909 ft | 475 kts | 160° |
| 2026-04-25 18:12 | 16.44040 | 98.17822 | 36916 ft | 475 kts | 161° |
| 2026-04-25 18:12 | 16.37925 | 98.20461 | 36930 ft | 474 kts | 160° |
| 2026-04-25 18:13 | 16.31833 | 98.23099 | 36931 ft | 474 kts | 160° |
| 2026-04-25 18:13 | 16.25773 | 98.25723 | 36929 ft | 474 kts | 160° |
| 2026-04-25 18:14 | 16.16630 | 98.29671 | 36923 ft | 474 kts | 160° |
| 2026-04-25 18:14 | 16.10534 | 98.32300 | 36928 ft | 474 kts | 160° |
| 2026-04-25 18:15 | 16.04441 | 98.34924 | 36942 ft | 473 kts | 160° |
| 2026-04-25 18:15 | 15.98357 | 98.37543 | 36946 ft | 473 kts | 160° |
| 2026-04-25 18:16 | 15.92306 | 98.40153 | 36946 ft | 473 kts | 160° |
| 2026-04-25 18:17 | 15.83169 | 98.44089 | 36943 ft | 473 kts | 160° |
| 2026-04-25 18:17 | 15.77131 | 98.46682 | 36944 ft | 472 kts | 160° |
| 2026-04-25 18:18 | 15.71064 | 98.49285 | 36951 ft | 472 kts | 160° |
| 2026-04-25 18:18 | 15.64996 | 98.51890 | 36963 ft | 471 kts | 160° |
| 2026-04-25 18:19 | 15.58937 | 98.54491 | 36968 ft | 471 kts | 160° |
| 2026-04-25 18:19 | 15.52878 | 98.57086 | 36967 ft | 471 kts | 159° |
| 2026-04-25 18:20 | 15.47288 | 98.60650 | 36963 ft | 475 kts | 139° |
| 2026-04-25 18:20 | 15.42880 | 98.65759 | 36984 ft | 475 kts | 129° |
| 2026-04-25 18:21 | 15.38744 | 98.71044 | 36987 ft | 474 kts | 129° |
| 2026-04-25 18:21 | 15.34581 | 98.76350 | 36987 ft | 474 kts | 129° |
| 2026-04-25 18:21 | 15.32512 | 98.78993 | 36773 ft | 474 kts | 129° |
| 2026-04-25 18:22 | 15.30435 | 98.81642 | 36522 ft | 474 kts | 129° |
| 2026-04-25 18:22 | 15.29055 | 98.83400 | 36187 ft | 473 kts | 129° |
| 2026-04-25 18:22 | 15.26280 | 98.86941 | 35409 ft | 472 kts | 128° |
| 2026-04-25 18:22 | 15.24210 | 98.89578 | 34849 ft | 471 kts | 128° |
| 2026-04-25 18:23 | 15.22145 | 98.92207 | 34270 ft | 471 kts | 128° |
| 2026-04-25 18:23 | 15.20100 | 98.94808 | 33665 ft | 471 kts | 128° |
| 2026-04-25 18:23 | 15.18034 | 98.97433 | 33086 ft | 469 kts | 128° |
| 2026-04-25 18:23 | 15.15972 | 99.00053 | 32521 ft | 467 kts | 128° |
| 2026-04-25 18:24 | 15.13923 | 99.02660 | 31946 ft | 466 kts | 128° |
| 2026-04-25 18:24 | 15.11880 | 99.05262 | 31387 ft | 464 kts | 128° |
| 2026-04-25 18:24 | 15.09846 | 99.07854 | 30835 ft | 462 kts | 128° |
| 2026-04-25 18:24 | 15.07820 | 99.10432 | 30287 ft | 460 kts | 128° |
| 2026-04-25 18:25 | 15.05802 | 99.12996 | 29701 ft | 459 kts | 128° |
| 2026-04-25 18:25 | 15.03797 | 99.15541 | 29173 ft | 454 kts | 128° |
| 2026-04-25 18:25 | 15.01810 | 99.18062 | 28665 ft | 449 kts | 129° |
| 2026-04-25 18:25 | 14.99871 | 99.20522 | 28168 ft | 444 kts | 129° |
| 2026-04-25 18:26 | 14.97929 | 99.22989 | 27669 ft | 440 kts | 129° |
| 2026-04-25 18:26 | 14.96003 | 99.25436 | 27160 ft | 435 kts | 129° |
| 2026-04-25 18:26 | 14.94099 | 99.27854 | 26684 ft | 431 kts | 129° |
| 2026-04-25 18:26 | 14.92213 | 99.30248 | 26177 ft | 427 kts | 129° |
| 2026-04-25 18:27 | 14.90360 | 99.32595 | 25691 ft | 424 kts | 129° |
| 2026-04-25 18:27 | 14.88491 | 99.34958 | 25173 ft | 422 kts | 129° |
| 2026-04-25 18:27 | 14.86648 | 99.37289 | 24760 ft | 416 kts | 129° |
| 2026-04-25 18:27 | 14.84818 | 99.39609 | 24288 ft | 413 kts | 129° |
| 2026-04-25 18:28 | 14.83016 | 99.41897 | 23862 ft | 408 kts | 129° |
| 2026-04-25 18:28 | 14.81231 | 99.44165 | 23382 ft | 405 kts | 129° |
| 2026-04-25 18:28 | 14.79456 | 99.46416 | 22863 ft | 402 kts | 129° |
| 2026-04-25 18:29 | 14.75965 | 99.50833 | 21868 ft | 396 kts | 129° |
| 2026-04-25 18:29 | 14.74222 | 99.53034 | 21416 ft | 393 kts | 129° |
| 2026-04-25 18:30 | 14.69093 | 99.59508 | 20091 ft | 384 kts | 129° |
| 2026-04-25 18:30 | 14.67402 | 99.61641 | 19653 ft | 381 kts | 129° |
| 2026-04-25 18:30 | 14.65725 | 99.63755 | 19226 ft | 379 kts | 129° |
| 2026-04-25 18:30 | 14.64066 | 99.65846 | 18707 ft | 373 kts | 129° |
| 2026-04-25 18:31 | 14.62447 | 99.67884 | 17958 ft | 369 kts | 129° |
| 2026-04-25 18:31 | 14.60832 | 99.69921 | 17492 ft | 364 kts | 129° |
| 2026-04-25 18:31 | 14.59234 | 99.71935 | 17068 ft | 361 kts | 129° |
| 2026-04-25 18:31 | 14.57649 | 99.73936 | 16646 ft | 359 kts | 129° |
| 2026-04-25 18:32 | 14.56074 | 99.75924 | 16225 ft | 357 kts | 129° |
| 2026-04-25 18:32 | 14.54507 | 99.77901 | 15819 ft | 355 kts | 129° |
| 2026-04-25 18:32 | 14.52949 | 99.79868 | 15420 ft | 353 kts | 129° |
| 2026-04-25 18:32 | 14.51396 | 99.81826 | 15006 ft | 352 kts | 129° |
| 2026-04-25 18:33 | 14.49848 | 99.83774 | 14606 ft | 350 kts | 129° |
| 2026-04-25 18:33 | 14.48326 | 99.85688 | 14232 ft | 348 kts | 129° |
| 2026-04-25 18:33 | 14.46802 | 99.87609 | 13848 ft | 346 kts | 129° |
| 2026-04-25 18:33 | 14.45276 | 99.89531 | 13430 ft | 345 kts | 129° |
| 2026-04-25 18:34 | 14.43668 | 99.91334 | 13023 ft | 341 kts | 139° |
| 2026-04-25 18:34 | 14.41847 | 99.92881 | 12623 ft | 338 kts | 141° |
| 2026-04-25 18:34 | 14.40033 | 99.94418 | 12264 ft | 335 kts | 141° |
| 2026-04-25 18:34 | 14.38239 | 99.95944 | 11829 ft | 334 kts | 140° |
| 2026-04-25 18:35 | 14.36458 | 99.97460 | 11436 ft | 331 kts | 140° |
| 2026-04-25 18:35 | 14.34691 | 99.98968 | 11123 ft | 326 kts | 140° |
| 2026-04-25 18:35 | 14.32942 | 100.00459 | 10701 ft | 325 kts | 140° |
| 2026-04-25 18:35 | 14.31250 | 100.01901 | 10585 ft | 314 kts | 140° |
| 2026-04-25 18:36 | 14.29594 | 100.03312 | 10412 ft | 303 kts | 140° |
| 2026-04-25 18:36 | 14.28040 | 100.04732 | 9866 ft | 297 kts | 131° |
| 2026-04-25 18:36 | 14.26880 | 100.06467 | 9221 ft | 293 kts | 116° |
| 2026-04-25 18:36 | 14.26250 | 100.08439 | 8851 ft | 287 kts | 100° |
| 2026-04-25 18:37 | 14.25991 | 100.10489 | 8792 ft | 288 kts | 98° |
| 2026-04-25 18:37 | 14.25734 | 100.12540 | 8729 ft | 287 kts | 98° |
| 2026-04-25 18:37 | 14.25473 | 100.14588 | 8673 ft | 287 kts | 98° |
| 2026-04-25 18:37 | 14.25210 | 100.16636 | 8597 ft | 288 kts | 98° |
| 2026-04-25 18:38 | 14.24950 | 100.18680 | 8520 ft | 287 kts | 98° |
| 2026-04-25 18:38 | 14.24694 | 100.20719 | 8446 ft | 287 kts | 98° |
| 2026-04-25 18:38 | 14.24440 | 100.22733 | 8368 ft | 287 kts | 98° |
| 2026-04-25 18:38 | 14.24182 | 100.24781 | 8291 ft | 287 kts | 98° |
| 2026-04-25 18:39 | 14.23927 | 100.26822 | 8212 ft | 287 kts | 98° |
| 2026-04-25 18:39 | 14.23676 | 100.28833 | 8134 ft | 286 kts | 98° |
| 2026-04-25 18:39 | 14.23422 | 100.30877 | 8064 ft | 286 kts | 98° |
| 2026-04-25 18:39 | 14.23168 | 100.32913 | 8007 ft | 286 kts | 98° |
| 2026-04-25 18:40 | 14.22913 | 100.34951 | 7907 ft | 285 kts | 98° |
| 2026-04-25 18:40 | 14.22657 | 100.36981 | 7817 ft | 285 kts | 99° |
| 2026-04-25 18:40 | 14.22401 | 100.39006 | 7723 ft | 284 kts | 98° |
| 2026-04-25 18:40 | 14.22153 | 100.40980 | 7609 ft | 271 kts | 99° |
| 2026-04-25 18:41 | 14.21916 | 100.42869 | 7482 ft | 260 kts | 99° |
| 2026-04-25 18:41 | 14.21691 | 100.44664 | 7275 ft | 253 kts | 99° |
| 2026-04-25 18:41 | 14.21470 | 100.46446 | 7152 ft | 249 kts | 98° |
| 2026-04-25 18:41 | 14.21247 | 100.48216 | 7033 ft | 249 kts | 98° |
| 2026-04-25 18:42 | 14.21023 | 100.49984 | 6915 ft | 248 kts | 99° |
| 2026-04-25 18:42 | 14.20948 | 100.50578 | 6873 ft | 248 kts | 98° |
| 2026-04-25 18:42 | 14.20575 | 100.53509 | 6686 ft | 248 kts | 98° |
| 2026-04-25 18:42 | 14.20353 | 100.55272 | 6567 ft | 247 kts | 99° |
| 2026-04-25 18:43 | 14.20136 | 100.57010 | 6447 ft | 247 kts | 99° |
| 2026-04-25 18:43 | 14.19916 | 100.58765 | 6230 ft | 245 kts | 98° |
| 2026-04-25 18:43 | 14.19696 | 100.60502 | 5957 ft | 244 kts | 98° |
| 2026-04-25 18:43 | 14.19475 | 100.62234 | 5677 ft | 242 kts | 98° |
| 2026-04-25 18:44 | 14.19251 | 100.63933 | 5399 ft | 241 kts | 102° |
| 2026-04-25 18:44 | 14.18635 | 100.65513 | 5122 ft | 237 kts | 126° |
| 2026-04-25 18:44 | 14.17459 | 100.66693 | 4728 ft | 239 kts | 149° |
| 2026-04-25 18:44 | 14.15897 | 100.67309 | 4319 ft | 241 kts | 165° |
| 2026-04-25 18:45 | 14.14275 | 100.67752 | 3901 ft | 243 kts | 165° |
| 2026-04-25 18:45 | 14.12650 | 100.68211 | 3610 ft | 241 kts | 165° |
| 2026-04-25 18:45 | 14.11062 | 100.68666 | 3366 ft | 230 kts | 165° |
| 2026-04-25 18:45 | 14.09590 | 100.69091 | 3236 ft | 214 kts | 165° |
| 2026-04-25 18:46 | 14.08190 | 100.69378 | 3180 ft | 195 kts | 179° |
| 2026-04-25 18:46 | 14.06891 | 100.69184 | 3032 ft | 185 kts | 199° |
| 2026-04-25 18:46 | 14.05761 | 100.68608 | 2813 ft | 179 kts | 208° |
| 2026-04-25 18:46 | 14.04680 | 100.68001 | 2591 ft | 175 kts | 208° |
| 2026-04-25 18:47 | 14.03624 | 100.67408 | 2374 ft | 171 kts | 208° |
| 2026-04-25 18:47 | 14.02609 | 100.66839 | 2160 ft | 161 kts | 208° |
| 2026-04-25 18:47 | 14.01663 | 100.66308 | 1958 ft | 153 kts | 208° |
| 2026-04-25 18:47 | 14.00735 | 100.65786 | 1765 ft | 150 kts | 208° |
| 2026-04-25 18:48 | 13.99815 | 100.65270 | 1572 ft | 149 kts | 208° |
| 2026-04-25 18:48 | 13.98909 | 100.64762 | 1377 ft | 147 kts | 209° |
| 2026-04-25 18:48 | 13.98007 | 100.64255 | 1184 ft | 147 kts | 210° |
| 2026-04-25 18:48 | 13.97108 | 100.63750 | 999 ft | 147 kts | 209° |
| 2026-04-25 18:49 | 13.96221 | 100.63260 | 834 ft | 146 kts | 208° |
| 2026-04-25 18:49 | 13.95332 | 100.62770 | 647 ft | 144 kts | 209° |
| 2026-04-25 18:49 | 13.94460 | 100.62269 | 479 ft | 143 kts | 208° |
| 2026-04-25 18:49 | 13.93580 | 100.61777 | 277 ft | 144 kts | 208° |
| 2026-04-25 18:50 | 13.92704 | 100.61283 | 83 ft | 144 kts | 208° |
| 2026-04-25 18:50 | 13.91880 | 100.60817 | 17 ft | 114 kts | 208° |
| 2026-04-25 18:50 | 13.91333 | 100.60511 | 16 ft | 70 kts | 208° |
| 2026-04-25 18:50 | 13.90950 | 100.60297 | 19 ft | 53 kts | 208° |
| 2026-04-25 18:51 | 13.90739 | 100.60173 | 17 ft | 33 kts | 216° |
| 2026-04-25 18:51 | 13.90681 | 100.60121 | 19 ft | 32 kts | 224° |
| 2026-04-25 18:51 | 13.90636 | 100.59937 | 17 ft | 16 kts | 3° |
| 2026-04-25 18:51 | 13.90724 | 100.59979 | 17 ft | 13 kts | 28° |
| 2026-04-25 18:52 | 13.90799 | 100.60021 | 17 ft | 12 kts | 29° |
| 2026-04-25 18:52 | 13.90869 | 100.60061 | 17 ft | 13 kts | 29° |
| 2026-04-25 18:52 | 13.90972 | 100.60119 | 18 ft | 20 kts | 28° |
| 2026-04-25 18:52 | 13.91090 | 100.60185 | 18 ft | 19 kts | 28° |
| 2026-04-25 18:53 | 13.91207 | 100.60250 | 17 ft | 19 kts | 28° |
| 2026-04-25 18:53 | 13.91318 | 100.60312 | 17 ft | 17 kts | 28° |
| 2026-04-25 18:53 | 13.91419 | 100.60369 | 17 ft | 16 kts | 28° |
| 2026-04-25 18:53 | 13.91512 | 100.60421 | 17 ft | 15 kts | 28° |
| 2026-04-25 18:54 | 13.91732 | 100.60545 | 17 ft | 22 kts | 28° |
| 2026-04-25 18:54 | 13.91867 | 100.60620 | 17 ft | 23 kts | 28° |
| 2026-04-25 18:54 | 13.91986 | 100.60687 | 18 ft | 18 kts | 28° |
| 2026-04-25 18:55 | 13.92088 | 100.60697 | 18 ft | 16 kts | 309° |
| 2026-04-25 18:55 | 13.92140 | 100.60604 | 18 ft | 14 kts | 298° |
| 2026-04-25 18:55 | 13.92209 | 100.60570 | 19 ft | 12 kts | 25° |
| 2026-04-25 18:55 | 13.92277 | 100.60608 | 18 ft | 11 kts | 28° |
| 2026-04-25 18:56 | 13.92336 | 100.60641 | 19 ft | 7 kts | 28° |
| 2026-04-25 18:56 | 13.92344 | 100.60674 | 18 ft | 5 kts | 115° |
| 2026-04-25 18:56 | 13.92330 | 100.60700 | 18 ft | 3 kts | 118° |
| 2026-04-25 18:56 | 13.92322 | 100.60716 | 19 ft | 2 kts | 119° |
| 2026-04-25 18:57 | 13.92319 | 100.60721 | 18 ft | 0 kts | 119° |